Schneifelwetter: Wetterstation Hallschlag, 537 m . NN
Wetterdaten: Samstag, 18.11.2006
Datum Zeit Temp. A. Temp. 2 Feuchte A. Luftdruck Regen Wind Richtung Richtung Sonnenschein Helligkeit T Regen Taupunkt Windchill
18.11.2006 00:00 6,8 C 6,3 C 92 % 1009 hPa 0,0 l/m 26,0 km/h (4 Bft) SW45 215 0 min 0 lux 0,00 min 5,6 C -2,8 C
18.11.2006 00:15 6,8 C 6,2 C 92 % 1009 hPa 0,0 l/m 24,3 km/h (4 Bft) S45 185 0 min 0 lux 0,00 min 5,6 C -2,3 C
18.11.2006 00:30 6,7 C 6,2 C 92 % 1009 hPa 0,0 l/m 24,6 km/h (4 Bft) S-SW22.5 195 0 min 0 lux 0,00 min 5,5 C -2,5 C
18.11.2006 00:45 6,7 C 6,1 C 92 % 1009 hPa 0,0 l/m 28,7 km/h (4 Bft) S-SW45 195 0 min 0 lux 0,00 min 5,5 C -3,7 C
18.11.2006 01:00 6,7 C 6,2 C 92 % 1009 hPa 0,0 l/m 25,6 km/h (4 Bft) S-SW45 195 0 min 0 lux 0,00 min 5,5 C -2,8 C
18.11.2006 01:15 6,8 C 6,2 C 92 % 1009 hPa 0,0 l/m 24,5 km/h (4 Bft) SW22.5 235 0 min 0 lux 0,00 min 5,6 C -2,4 C
18.11.2006 01:30 6,7 C 6,2 C 92 % 1009 hPa 0,0 l/m 33,0 km/h (5 Bft) SW67.5 225 0 min 0 lux 0,00 min 5,5 C -4,7 C
18.11.2006 01:45 6,4 C 5,8 C 91 % 1008 hPa 0,0 l/m 23,8 km/h (4 Bft) S-SW45 205 0 min 0 lux 0,00 min 5,0 C -2,7 C
18.11.2006 02:00 6,2 C 5,7 C 91 % 1009 hPa 0,0 l/m 24,0 km/h (4 Bft) S-SW45 205 0 min 0 lux 0,00 min 4,8 C -3,0 C
18.11.2006 02:15 6,2 C 5,7 C 92 % 1008 hPa 0,0 l/m 31,8 km/h (5 Bft) S-SW22.5 195 0 min 0 lux 0,00 min 5,0 C -5,1 C
18.11.2006 02:30 6,1 C 5,5 C 92 % 1009 hPa 0,0 l/m 20,5 km/h (4 Bft) S-SW45 210 0 min 0 lux 0,00 min 4,9 C -1,9 C
18.11.2006 02:45 6,2 C 5,9 C 93 % 1009 hPa 0,0 l/m 23,4 km/h (4 Bft) SW45 215 0 min 0 lux 0,00 min 5,2 C -2,8 C
18.11.2006 03:00 6,7 C 6,3 C 93 % 1009 hPa 0,0 l/m 30,3 km/h (5 Bft) SW45 230 0 min 0 lux 0,00 min 5,6 C -4,1 C
18.11.2006 03:15 6,5 C 6,0 C 91 % 1009 hPa 0,0 l/m 26,0 km/h (4 Bft) SW45 215 0 min 0 lux 0,00 min 5,1 C -3,2 C
18.11.2006 03:30 6,3 C 5,8 C 91 % 1009 hPa 0,0 l/m 26,4 km/h (4 Bft) S-SW22.5 195 0 min 0 lux 0,00 min 4,9 C -3,6 C
18.11.2006 03:45 6,2 C 5,6 C 91 % 1009 hPa 0,0 l/m 23,8 km/h (4 Bft) S-SW45 210 0 min 0 lux 0,00 min 4,8 C -2,9 C
18.11.2006 04:00 6,1 C 5,6 C 92 % 1009 hPa 0,0 l/m 30,5 km/h (5 Bft) S-SW22.5 205 0 min 0 lux 0,00 min 4,9 C -5,0 C
18.11.2006 04:15 6,1 C 5,6 C 92 % 1009 hPa 0,0 l/m 24,1 km/h (4 Bft) SW67.5 225 0 min 0 lux 0,00 min 4,9 C -3,2 C
18.11.2006 04:30 6,0 C 5,4 C 92 % 1009 hPa 0,0 l/m 18,6 km/h (3 Bft) SW45 230 0 min 0 lux 0,00 min 4,8 C -1,3 C
18.11.2006 04:45 5,8 C 5,3 C 92 % 1009 hPa 0,0 l/m 23,2 km/h (4 Bft) SW45 230 0 min 0 lux 0,00 min 4,6 C -3,3 C
18.11.2006 05:00 5,8 C 5,3 C 92 % 1009 hPa 0,0 l/m 28,1 km/h (4 Bft) W-SW45 240 0 min 0 lux 0,00 min 4,6 C -4,8 C
18.11.2006 05:15 5,9 C 5,3 C 92 % 1009 hPa 0,0 l/m 22,7 km/h (4 Bft) S-SW22.5 205 0 min 0 lux 0,00 min 4,7 C -3,0 C
18.11.2006 05:30 5,8 C 5,2 C 92 % 1009 hPa 0,0 l/m 27,3 km/h (4 Bft) SW45 215 0 min 0 lux 0,00 min 4,6 C -4,5 C
18.11.2006 05:45 5,7 C 5,2 C 92 % 1009 hPa 0,0 l/m 27,4 km/h (4 Bft) SW45 215 0 min 0 lux 0,00 min 4,5 C -4,7 C
18.11.2006 06:00 5,9 C 5,5 C 93 % 1009 hPa 0,0 l/m 29,8 km/h (5 Bft) S-SW45 205 0 min 0 lux 0,00 min 4,9 C -5,1 C
18.11.2006 06:15 6,1 C 5,6 C 92 % 1009 hPa 0,0 l/m 31,7 km/h (5 Bft) SW45 215 0 min 0 lux 0,00 min 4,9 C -5,2 C
18.11.2006 06:30 6,3 C 5,9 C 93 % 1009 hPa 0,0 l/m 30,3 km/h (5 Bft) S-SW45 195 0 min 0 lux 0,00 min 5,3 C -4,6 C
18.11.2006 06:45 6,5 C 6,2 C 92 % 1010 hPa 0,0 l/m 23,3 km/h (4 Bft) S-SW45 195 0 min 0 lux 0,00 min 5,3 C -2,4 C
18.11.2006 07:00 6,6 C 6,3 C 92 % 1010 hPa 0,0 l/m 27,5 km/h (4 Bft) S-SW45 210 0 min 0 lux 0,00 min 5,4 C -3,5 C
18.11.2006 07:15 6,7 C 6,5 C 92 % 1010 hPa 0,0 l/m 24,2 km/h (4 Bft) SW45 220 0 min 0 lux 0,00 min 5,5 C -2,4 C
18.11.2006 07:30 6,8 C 6,6 C 92 % 1010 hPa 0,0 l/m 25,2 km/h (4 Bft) S-SW45 195 0 min 0 lux 0,00 min 5,6 C -2,6 C
18.11.2006 07:45 6,7 C 6,6 C 92 % 1010 hPa 0,0 l/m 23,2 km/h (4 Bft) S-SW22.5 195 0 min 42 lux 0,00 min 5,5 C -2,1 C
18.11.2006 08:00 6,8 C 6,6 C 92 % 1010 hPa 0,0 l/m 27,6 km/h (4 Bft) SW45 215 0 min 189 lux 0,00 min 5,6 C -3,2 C
18.11.2006 08:15 6,8 C 6,6 C 92 % 1011 hPa 0,0 l/m 28,0 km/h (4 Bft) SW45 215 0 min 777 lux 0,00 min 5,6 C -3,3 C
18.11.2006 08:30 6,8 C 6,6 C 92 % 1011 hPa 0,0 l/m 22,3 km/h (4 Bft) S-SW45 210 0 min 722 lux 0,00 min 5,6 C -1,7 C
18.11.2006 08:45 6,8 C 6,5 C 92 % 1011 hPa 0,0 l/m 30,9 km/h (5 Bft) SW45 230 0 min 1,29 klux 0,00 min 5,6 C -4,1 C
18.11.2006 09:00 6,8 C 6,5 C 93 % 1011 hPa 0,3 l/m 28,6 km/h (4 Bft) S-SW45 205 0 min 2,27 klux 15,00 min 5,7 C -3,5 C
18.11.2006 09:15 6,8 C 6,5 C 93 % 1012 hPa 0,0 l/m 29,7 km/h (5 Bft) SW45 215 0 min 3,99 klux 0,00 min 5,7 C -3,8 C
18.11.2006 09:30 6,9 C 6,5 C 93 % 1012 hPa 0,0 l/m 28,0 km/h (4 Bft) SW45 215 0 min 2,84 klux 0,00 min 5,8 C -3,2 C
18.11.2006 09:45 6,9 C 6,5 C 93 % 1012 hPa 0,0 l/m 28,5 km/h (4 Bft) SW45 215 0 min 2,72 klux 0,00 min 5,8 C -3,3 C
18.11.2006 10:01 6,9 C 6,5 C 93 % 1012 hPa 0,0 l/m 21,0 km/h (4 Bft) SW45 215 0 min 2,55 klux 0,00 min 5,8 C -1,1 C
18.11.2006 10:16 6,9 C 6,5 C 93 % 1012 hPa 0,0 l/m 19,3 km/h (3 Bft) SW45 230 0 min 2,58 klux 0,00 min 5,8 C -0,5 C
18.11.2006 10:30 7,0 C 6,6 C 93 % 1013 hPa 0,0 l/m 26,3 km/h (4 Bft) SW45 230 0 min 3,25 klux 0,00 min 5,9 C -2,6 C
18.11.2006 10:45 7,0 C 6,6 C 93 % 1013 hPa 0,0 l/m 18,1 km/h (3 Bft) SW67.5 235 0 min 4,14 klux 0,00 min 5,9 C 0,1 C
18.11.2006 11:00 7,1 C 6,7 C 93 % 1013 hPa 0,0 l/m 21,5 km/h (4 Bft) SW45 225 0 min 4,59 klux 0,00 min 6,0 C -1,0 C
18.11.2006 11:15 7,4 C 7,0 C 93 % 1013 hPa 0,0 l/m 21,6 km/h (4 Bft) W-SW45 240 0 min 11,3 klux 0,00 min 6,3 C -0,6 C
18.11.2006 11:30 7,4 C 7,0 C 93 % 1013 hPa 0,0 l/m 25,6 km/h (4 Bft) SW45 215 0 min 4,88 klux 0,00 min 6,3 C -1,9 C
18.11.2006 11:45 7,5 C 7,2 C 92 % 1014 hPa 0,0 l/m 20,1 km/h (4 Bft) W-SW67.5 240 0 min 12,5 klux 0,00 min 6,3 C 0,0 C
18.11.2006 12:00 7,8 C 7,4 C 92 % 1014 hPa 0,0 l/m 24,4 km/h (4 Bft) SW45 225 0 min 7,77 klux 0,00 min 6,6 C -1,0 C
18.11.2006 12:15 7,8 C 7,3 C 91 % 1014 hPa 0,0 l/m 24,3 km/h (4 Bft) W-SW45 240 0 min 6,33 klux 0,00 min 6,4 C -0,9 C
18.11.2006 12:30 7,2 C 7,1 C 90 % 1014 hPa 0,0 l/m 15,4 km/h (3 Bft) W22.5 270 0 min 4,12 klux 0,00 min 5,7 C 1,6 C
18.11.2006 12:45 6,9 C 6,9 C 90 % 1014 hPa 0,0 l/m 15,8 km/h (3 Bft) W45 280 0 min 5,08 klux 0,00 min 5,4 C 1,0 C
18.11.2006 13:00 6,9 C 6,9 C 91 % 1015 hPa 0,0 l/m 16,3 km/h (3 Bft) W45 270 0 min 11,4 klux 0,00 min 5,5 C 0,8 C
18.11.2006 13:15 7,0 C 6,7 C 90 % 1015 hPa 0,0 l/m 7,2 km/h (2 Bft) W22.5 270 0 min 5,57 klux 0,00 min 5,5 C 6,3 C
18.11.2006 13:30 6,9 C 6,6 C 89 % 1015 hPa 0,0 l/m 7,0 km/h (2 Bft) W 270 0 min 6,46 klux 0,00 min 5,2 C 6,4 C
18.11.2006 13:45 6,8 C 6,4 C 89 % 1015 hPa 0,0 l/m 7,3 km/h (2 Bft) W 265 0 min 7,49 klux 0,00 min 5,1 C 6,1 C
18.11.2006 14:00 7,2 C 6,8 C 89 % 1015 hPa 0,0 l/m 9,1 km/h (2 Bft) SW22.5 220 0 min 12,2 klux 0,00 min 5,5 C 5,1 C
18.11.2006 14:15 7,5 C 6,8 C 88 % 1015 hPa 0,0 l/m 10,1 km/h (2 Bft) W22.5 265 0 min 13,5 klux 0,00 min 5,6 C 4,8 C
18.11.2006 14:30 7,6 C 7,0 C 88 % 1015 hPa 0,0 l/m 10,9 km/h (2 Bft) W-SW 255 0 min 11,5 klux 0,00 min 5,7 C 4,4 C
18.11.2006 14:45 7,6 C 7,0 C 87 % 1015 hPa 0,0 l/m 10,7 km/h (2 Bft) W-SW22.5 255 0 min 10,6 klux 0,00 min 5,6 C 4,5 C
18.11.2006 15:01 7,5 C 6,9 C 86 % 1015 hPa 0,0 l/m 10,4 km/h (2 Bft) SW45 235 0 min 9,8 klux 0,00 min 5,3 C 4,6 C
18.11.2006 15:16 7,3 C 7,1 C 86 % 1016 hPa 0,0 l/m 11,8 km/h (2 Bft) W 260 0 min 11,6 klux 0,00 min 5,1 C 3,5 C
18.11.2006 15:30 7,2 C 6,8 C 86 % 1016 hPa 0,0 l/m 6,2 km/h (2 Bft) W-SW 250 0 min 6,63 klux 0,00 min 5,0 C 7,2 C
18.11.2006 15:45 6,9 C 6,4 C 87 % 1016 hPa 0,0 l/m 6,3 km/h (2 Bft) S 180 0 min 6,02 klux 0,00 min 4,9 C 6,9 C
18.11.2006 16:00 6,8 C 6,1 C 87 % 1016 hPa 0,0 l/m 3,0 km/h (1 Bft) SW 235 0 min 4,50 klux 0,00 min 4,8 C 6,8 C
18.11.2006 16:15 6,5 C 5,9 C 87 % 1016 hPa 0,0 l/m 0,0 km/h (0 Bft) SW 235 0 min 1,72 klux 0,00 min 4,5 C 6,5 C
18.11.2006 16:30 6,3 C 5,6 C 88 % 1017 hPa 0,0 l/m 0,0 km/h (0 Bft) SW 235 0 min 1,45 klux 0,00 min 4,5 C 6,3 C
18.11.2006 16:45 6,0 C 4,8 C 88 % 1016 hPa 0,0 l/m 2,5 km/h (1 Bft) SW 230 0 min 1,33 klux 0,00 min 4,2 C 6,0 C
18.11.2006 17:00 5,3 C 3,8 C 88 % 1017 hPa 0,0 l/m 3,4 km/h (1 Bft) S-SW 205 0 min 428 lux 0,00 min 3,5 C 5,3 C
18.11.2006 17:15 4,6 C 3,1 C 89 % 1017 hPa 0,0 l/m 6,2 km/h (2 Bft) S 190 0 min 85 lux 0,00 min 2,9 C 4,6 C
18.11.2006 17:30 4,1 C 2,4 C 89 % 1017 hPa 0,0 l/m 3,7 km/h (1 Bft) SW 225 0 min 12 lux 0,00 min 2,5 C 4,1 C
18.11.2006 17:46 3,6 C 1,7 C 89 % 1017 hPa 0,0 l/m 0,1 km/h (0 Bft) SW 230 0 min 0 lux 0,00 min 2,0 C 3,6 C
18.11.2006 18:01 3,1 C 1,3 C 90 % 1017 hPa 0,0 l/m 3,2 km/h (1 Bft) SW 225 0 min 0 lux 0,00 min 1,6 C 3,1 C
18.11.2006 18:15 2,7 C 0,8 C 90 % 1017 hPa 0,0 l/m 0,0 km/h (0 Bft) SW 225 0 min 0 lux 0,00 min 1,2 C 2,7 C
18.11.2006 18:30 2,4 C 0,7 C 91 % 1017 hPa 0,0 l/m 0,0 km/h (0 Bft) SW 225 0 min 0 lux 0,00 min 1,1 C 2,4 C
18.11.2006 18:45 2,2 C 0,2 C 91 % 1017 hPa 0,0 l/m 0,4 km/h (0 Bft) SW 225 0 min 0 lux 0,00 min 0,9 C 2,2 C
18.11.2006 19:00 2,0 C 0,5 C 92 % 1017 hPa 0,0 l/m 0,1 km/h (0 Bft) SW 225 0 min 0 lux 0,00 min 0,8 C 2,0 C
18.11.2006 19:15 1,9 C 0,3 C 92 % 1018 hPa 0,0 l/m 0,0 km/h (0 Bft) SW 225 0 min 0 lux 0,00 min 0,7 C 1,9 C
18.11.2006 19:30 1,9 C 0,4 C 92 % 1018 hPa 0,0 l/m 0,0 km/h (0 Bft) SW 225 0 min 0 lux 0,00 min 0,7 C 1,9 C
18.11.2006 19:45 1,6 C -0,2 C 92 % 1018 hPa 0,0 l/m 0,0 km/h (0 Bft) SW 225 0 min 0 lux 0,00 min 0,4 C 1,6 C
18.11.2006 20:00 1,2 C -0,5 C 92 % 1018 hPa 0,0 l/m 0,0 km/h (0 Bft) SW 225 0 min 0 lux 0,00 min 0,0 C 1,2 C
18.11.2006 20:15 0,9 C -0,4 C 92 % 1018 hPa 0,0 l/m 0,0 km/h (0 Bft) SW 225 0 min 0 lux 0,00 min -0,2 C 0,9 C
18.11.2006 20:30 1,1 C 0,2 C 92 % 1018 hPa 0,0 l/m 0,0 km/h (0 Bft) SW 225 0 min 0 lux 0,00 min -0,1 C 1,1 C
18.11.2006 20:45 1,3 C 0,2 C 93 % 1018 hPa 0,0 l/m 0,0 km/h (0 Bft) SW 225 0 min 0 lux 0,00 min 0,3 C 1,3 C
18.11.2006 21:00 1,3 C 0,1 C 93 % 1018 hPa 0,0 l/m 0,0 km/h (0 Bft) SW 225 0 min 0 lux 0,00 min 0,3 C 1,3 C
18.11.2006 21:15 1,4 C 0,4 C 93 % 1018 hPa 0,0 l/m 0,0 km/h (0 Bft) SW 225 0 min 0 lux 0,00 min 0,4 C 1,4 C
18.11.2006 21:30 1,5 C 0,5 C 93 % 1019 hPa 0,0 l/m 0,0 km/h (0 Bft) SW 225 0 min 0 lux 0,00 min 0,5 C 1,5 C
18.11.2006 21:45 1,5 C 0,6 C 93 % 1019 hPa 0,0 l/m 0,0 km/h (0 Bft) SW 225 0 min 0 lux 0,00 min 0,5 C 1,5 C
18.11.2006 22:00 1,5 C 0,6 C 93 % 1019 hPa 0,0 l/m 0,0 km/h (0 Bft) SW 225 0 min 0 lux 0,00 min 0,5 C 1,5 C
18.11.2006 22:15 1,4 C 0,5 C 93 % 1019 hPa 0,0 l/m 0,0 km/h (0 Bft) SW 225 0 min 0 lux 0,00 min 0,4 C 1,4 C
18.11.2006 22:31 1,4 C 0,6 C 93 % 1019 hPa 0,0 l/m 0,0 km/h (0 Bft) SW 225 0 min 0 lux 0,00 min 0,4 C 1,4 C
18.11.2006 22:45 1,5 C 0,7 C 93 % 1019 hPa 0,0 l/m 0,0 km/h (0 Bft) SW 225 0 min 0 lux 0,00 min 0,5 C 1,5 C
18.11.2006 23:00 1,7 C 1,0 C 93 % 1019 hPa 0,0 l/m 0,0 km/h (0 Bft) SW 225 0 min 0 lux 0,00 min 0,7 C 1,7 C
18.11.2006 23:15 1,8 C 1,2 C 93 % 1019 hPa 0,0 l/m 0,0 km/h (0 Bft) SW 225 0 min 0 lux 0,00 min 0,8 C 1,8 C
18.11.2006 23:30 1,9 C 1,3 C 93 % 1019 hPa 0,0 l/m 0,0 km/h (0 Bft) SW 225 0 min 0 lux 0,00 min 0,9 C 1,9 C
18.11.2006 23:45 2,1 C 1,6 C 93 % 1019 hPa 0,0 l/m 0,0 km/h (0 Bft) SW 225 0 min 0 lux 0,00 min 1,1 C 2,1 C
_ Min-Zeit 20:15 20:00 15:01 01:45 - 16:15 - - - - - 20:15 06:15
Minimum _ 0,9 C -0,5 C 86 % 1008 hPa - 0,0 km/h (0 Bft) - - - - - -0,2 C -5,2 C
_ Max-Zeit 12:00 12:00 02:45 21:30 09:00 01:30 - - 00:00 14:15 09:00 12:00 15:30
Maximum _ 7,8 C 7,4 C 93 % 1019 hPa 0,3 l/m 33,0 km/h
SW (5 Bft)
- - 0 min 13,5 klux 15,00 min 6,6 C 7,2 C
Durchschnitt _ 5,4 C 4,7 C 91 % 1014 hPa #0,3 l/m 15,1 km/h (3 Bft) SW - #0 min. 2,15 klux #15 min. 4,1 C 0,0 C